sensor_id;sensor_type;location;lat;lon;timestamp;temperature;humidity
47482;DHT22;33219;47.410;9.730;2022-12-13T00:01:24;-7.40;99.90
47482;DHT22;33219;47.410;9.730;2022-12-13T00:03:58;-7.40;99.90
47482;DHT22;33219;47.410;9.730;2022-12-13T00:06:22;-7.40;99.90
47482;DHT22;33219;47.410;9.730;2022-12-13T00:08:50;-7.40;99.90
47482;DHT22;33219;47.410;9.730;2022-12-13T00:11:17;-7.40;99.90
47482;DHT22;33219;47.410;9.730;2022-12-13T00:13:46;-7.40;99.90
47482;DHT22;33219;47.410;9.730;2022-12-13T00:16:16;-7.40;99.90
47482;DHT22;33219;47.410;9.730;2022-12-13T00:18:46;-7.50;99.90
47482;DHT22;33219;47.410;9.730;2022-12-13T00:21:15;-7.50;99.90
47482;DHT22;33219;47.410;9.730;2022-12-13T00:23:43;-7.50;99.90
47482;DHT22;33219;47.410;9.730;2022-12-13T00:26:14;-7.40;99.90
47482;DHT22;33219;47.410;9.730;2022-12-13T00:28:42;-7.50;99.90
47482;DHT22;33219;47.410;9.730;2022-12-13T00:31:10;-7.40;99.90
47482;DHT22;33219;47.410;9.730;2022-12-13T00:33:38;-7.40;99.90
47482;DHT22;33219;47.410;9.730;2022-12-13T00:36:06;-7.40;99.90
47482;DHT22;33219;47.410;9.730;2022-12-13T00:38:35;-7.40;99.90
47482;DHT22;33219;47.410;9.730;2022-12-13T00:41:13;-7.50;99.90
47482;DHT22;33219;47.410;9.730;2022-12-13T00:43:41;-7.50;99.90
47482;DHT22;33219;47.410;9.730;2022-12-13T00:46:14;-7.50;99.90
47482;DHT22;33219;47.410;9.730;2022-12-13T00:48:42;-7.50;99.90
47482;DHT22;33219;47.410;9.730;2022-12-13T00:51:11;-7.50;99.90
47482;DHT22;33219;47.410;9.730;2022-12-13T00:53:39;-7.50;99.90
47482;DHT22;33219;47.410;9.730;2022-12-13T00:56:12;-7.50;99.90
47482;DHT22;33219;47.410;9.730;2022-12-13T00:58:40;-7.60;99.90
47482;DHT22;33219;47.410;9.730;2022-12-13T01:01:11;-7.70;99.90
47482;DHT22;33219;47.410;9.730;2022-12-13T01:03:40;-7.70;99.90
47482;DHT22;33219;47.410;9.730;2022-12-13T01:08:38;-7.80;99.90
47482;DHT22;33219;47.410;9.730;2022-12-13T01:11:07;-7.80;99.90
47482;DHT22;33219;47.410;9.730;2022-12-13T01:13:35;-7.80;99.90
47482;DHT22;33219;47.410;9.730;2022-12-13T01:16:05;-7.80;99.90
47482;DHT22;33219;47.410;9.730;2022-12-13T01:18:34;-7.80;99.90
47482;DHT22;33219;47.410;9.730;2022-12-13T01:21:09;-7.70;99.90
47482;DHT22;33219;47.410;9.730;2022-12-13T01:23:33;-7.70;99.90
47482;DHT22;33219;47.410;9.730;2022-12-13T01:26:05;-7.70;99.90
47482;DHT22;33219;47.410;9.730;2022-12-13T01:28:33;-7.70;99.90
47482;DHT22;33219;47.410;9.730;2022-12-13T01:31:03;-7.80;99.90
47482;DHT22;33219;47.410;9.730;2022-12-13T01:33:31;-7.80;99.90
47482;DHT22;33219;47.410;9.730;2022-12-13T01:36:02;-7.80;99.90
47482;DHT22;33219;47.410;9.730;2022-12-13T01:38:30;-7.90;99.90
47482;DHT22;33219;47.410;9.730;2022-12-13T01:40:57;-7.90;99.90
47482;DHT22;33219;47.410;9.730;2022-12-13T01:43:51;-7.90;99.90
47482;DHT22;33219;47.410;9.730;2022-12-13T01:45:58;-8.00;99.90
47482;DHT22;33219;47.410;9.730;2022-12-13T01:48:28;-8.00;99.90
47482;DHT22;33219;47.410;9.730;2022-12-13T01:50:59;-8.00;99.90
47482;DHT22;33219;47.410;9.730;2022-12-13T01:53:29;-8.00;99.90
47482;DHT22;33219;47.410;9.730;2022-12-13T01:56:05;-8.00;99.90
47482;DHT22;33219;47.410;9.730;2022-12-13T01:58:28;-8.00;99.90
47482;DHT22;33219;47.410;9.730;2022-12-13T02:00:58;-8.00;99.90
47482;DHT22;33219;47.410;9.730;2022-12-13T02:03:26;-8.00;99.90
47482;DHT22;33219;47.410;9.730;2022-12-13T02:06:15;-8.00;99.90
47482;DHT22;33219;47.410;9.730;2022-12-13T02:08:44;-8.00;99.90
47482;DHT22;33219;47.410;9.730;2022-12-13T02:11:13;-8.10;99.90
47482;DHT22;33219;47.410;9.730;2022-12-13T02:13:43;-8.00;99.90
47482;DHT22;33219;47.410;9.730;2022-12-13T02:30:46;-8.20;99.90
47482;DHT22;33219;47.410;9.730;2022-12-13T02:33:24;-8.20;99.90
47482;DHT22;33219;47.410;9.730;2022-12-13T02:36:07;-8.20;99.90
47482;DHT22;33219;47.410;9.730;2022-12-13T02:42:20;-8.20;99.90
47482;DHT22;33219;47.410;9.730;2022-12-13T02:44:02;-8.20;99.90
47482;DHT22;33219;47.410;9.730;2022-12-13T02:46:32;-8.10;99.90
47482;DHT22;33219;47.410;9.730;2022-12-13T02:49:01;-8.10;99.90
47482;DHT22;33219;47.410;9.730;2022-12-13T02:51:30;-8.10;99.90
47482;DHT22;33219;47.410;9.730;2022-12-13T02:53:58;-8.10;99.90
47482;DHT22;33219;47.410;9.730;2022-12-13T02:56:26;-8.10;99.90
47482;DHT22;33219;47.410;9.730;2022-12-13T02:58:55;-8.10;99.90
47482;DHT22;33219;47.410;9.730;2022-12-13T03:01:34;-8.10;99.90
47482;DHT22;33219;47.410;9.730;2022-12-13T03:04:30;-8.20;99.90
47482;DHT22;33219;47.410;9.730;2022-12-13T03:07:11;-8.20;99.90
47482;DHT22;33219;47.410;9.730;2022-12-13T03:09:54;-8.20;99.90
47482;DHT22;33219;47.410;9.730;2022-12-13T03:12:33;-8.20;99.90
47482;DHT22;33219;47.410;9.730;2022-12-13T03:15:39;-8.10;99.90
47482;DHT22;33219;47.410;9.730;2022-12-13T03:18:13;-8.10;99.90
47482;DHT22;33219;47.410;9.730;2022-12-13T03:20:46;-8.10;99.90
47482;DHT22;33219;47.410;9.730;2022-12-13T03:23:16;-8.10;99.90
47482;DHT22;33219;47.410;9.730;2022-12-13T03:25:48;-8.10;99.90
47482;DHT22;33219;47.410;9.730;2022-12-13T03:28:15;-8.20;99.90
47482;DHT22;33219;47.410;9.730;2022-12-13T03:30:43;-8.20;99.90
47482;DHT22;33219;47.410;9.730;2022-12-13T03:33:11;-8.20;99.90
47482;DHT22;33219;47.410;9.730;2022-12-13T03:35:41;-8.20;99.90
47482;DHT22;33219;47.410;9.730;2022-12-13T03:38:10;-8.20;99.90
47482;DHT22;33219;47.410;9.730;2022-12-13T03:40:38;-8.20;99.90
47482;DHT22;33219;47.410;9.730;2022-12-13T03:43:06;-8.20;99.90
47482;DHT22;33219;47.410;9.730;2022-12-13T03:45:33;-8.10;99.90
47482;DHT22;33219;47.410;9.730;2022-12-13T03:48:01;-8.20;99.90
47482;DHT22;33219;47.410;9.730;2022-12-13T03:50:28;-8.30;99.90
47482;DHT22;33219;47.410;9.730;2022-12-13T03:52:58;-8.30;99.90
47482;DHT22;33219;47.410;9.730;2022-12-13T03:55:26;-8.20;99.90
47482;DHT22;33219;47.410;9.730;2022-12-13T03:57:54;-8.20;99.90
47482;DHT22;33219;47.410;9.730;2022-12-13T04:00:22;-8.10;99.90
47482;DHT22;33219;47.410;9.730;2022-12-13T04:02:50;-8.10;99.90
47482;DHT22;33219;47.410;9.730;2022-12-13T04:05:17;-8.10;99.90
47482;DHT22;33219;47.410;9.730;2022-12-13T04:07:45;-8.10;99.90
47482;DHT22;33219;47.410;9.730;2022-12-13T04:10:13;-8.10;99.90
47482;DHT22;33219;47.410;9.730;2022-12-13T04:12:40;-8.10;99.90
47482;DHT22;33219;47.410;9.730;2022-12-13T04:15:26;-8.10;99.90
47482;DHT22;33219;47.410;9.730;2022-12-13T04:17:53;-8.10;99.90
47482;DHT22;33219;47.410;9.730;2022-12-13T04:20:21;-8.10;99.90
47482;DHT22;33219;47.410;9.730;2022-12-13T04:22:49;-8.10;99.90
47482;DHT22;33219;47.410;9.730;2022-12-13T04:25:16;-8.20;99.90
47482;DHT22;33219;47.410;9.730;2022-12-13T04:27:45;-8.20;99.90
47482;DHT22;33219;47.410;9.730;2022-12-13T04:30:12;-8.20;99.90
47482;DHT22;33219;47.410;9.730;2022-12-13T04:32:40;-8.20;99.90
47482;DHT22;33219;47.410;9.730;2022-12-13T04:35:08;-8.30;99.90
47482;DHT22;33219;47.410;9.730;2022-12-13T04:37:35;-8.30;99.90
47482;DHT22;33219;47.410;9.730;2022-12-13T04:40:03;-8.30;99.90
47482;DHT22;33219;47.410;9.730;2022-12-13T04:42:31;-8.30;99.90
47482;DHT22;33219;47.410;9.730;2022-12-13T04:44:58;-8.30;99.90
47482;DHT22;33219;47.410;9.730;2022-12-13T04:47:26;-8.40;99.90
47482;DHT22;33219;47.410;9.730;2022-12-13T04:49:53;-8.40;99.90
47482;DHT22;33219;47.410;9.730;2022-12-13T04:52:21;-8.50;99.90
47482;DHT22;33219;47.410;9.730;2022-12-13T04:54:49;-8.50;99.90
47482;DHT22;33219;47.410;9.730;2022-12-13T04:57:17;-8.50;99.90
47482;DHT22;33219;47.410;9.730;2022-12-13T04:59:44;-8.60;99.90
47482;DHT22;33219;47.410;9.730;2022-12-13T05:02:12;-8.60;99.90
47482;DHT22;33219;47.410;9.730;2022-12-13T05:04:40;-8.60;99.90
47482;DHT22;33219;47.410;9.730;2022-12-13T05:07:07;-8.60;99.90
47482;DHT22;33219;47.410;9.730;2022-12-13T05:09:35;-8.60;99.90
47482;DHT22;33219;47.410;9.730;2022-12-13T05:12:03;-8.70;99.90
47482;DHT22;33219;47.410;9.730;2022-12-13T05:14:31;-8.60;99.90
47482;DHT22;33219;47.410;9.730;2022-12-13T05:17:00;-8.60;99.90
47482;DHT22;33219;47.410;9.730;2022-12-13T05:19:28;-8.70;99.90
47482;DHT22;33219;47.410;9.730;2022-12-13T05:21:55;-8.70;99.90
47482;DHT22;33219;47.410;9.730;2022-12-13T05:24:23;-8.70;99.90
47482;DHT22;33219;47.410;9.730;2022-12-13T05:26:51;-8.70;99.90
47482;DHT22;33219;47.410;9.730;2022-12-13T05:29:18;-8.70;99.90
47482;DHT22;33219;47.410;9.730;2022-12-13T05:31:46;-8.70;99.90
47482;DHT22;33219;47.410;9.730;2022-12-13T05:34:13;-8.70;99.90
47482;DHT22;33219;47.410;9.730;2022-12-13T05:36:41;-8.60;99.90
47482;DHT22;33219;47.410;9.730;2022-12-13T05:39:08;-8.60;99.90
47482;DHT22;33219;47.410;9.730;2022-12-13T05:41:36;-8.60;99.90
47482;DHT22;33219;47.410;9.730;2022-12-13T05:44:04;-8.50;99.90
47482;DHT22;33219;47.410;9.730;2022-12-13T05:46:31;-8.40;99.90
47482;DHT22;33219;47.410;9.730;2022-12-13T05:48:59;-8.40;99.90
47482;DHT22;33219;47.410;9.730;2022-12-13T05:51:27;-8.40;99.90
47482;DHT22;33219;47.410;9.730;2022-12-13T05:53:54;-8.40;99.90
47482;DHT22;33219;47.410;9.730;2022-12-13T05:56:22;-8.50;99.90
47482;DHT22;33219;47.410;9.730;2022-12-13T05:58:49;-8.40;99.90
47482;DHT22;33219;47.410;9.730;2022-12-13T06:01:17;-8.40;99.90
47482;DHT22;33219;47.410;9.730;2022-12-13T06:03:44;-8.40;99.90
47482;DHT22;33219;47.410;9.730;2022-12-13T06:06:12;-8.50;99.90
47482;DHT22;33219;47.410;9.730;2022-12-13T06:08:41;-8.40;99.90
47482;DHT22;33219;47.410;9.730;2022-12-13T06:11:09;-8.40;99.90
47482;DHT22;33219;47.410;9.730;2022-12-13T06:13:37;-8.50;99.90
47482;DHT22;33219;47.410;9.730;2022-12-13T06:16:05;-8.60;99.90
47482;DHT22;33219;47.410;9.730;2022-12-13T06:18:34;-8.60;99.90
47482;DHT22;33219;47.410;9.730;2022-12-13T06:21:04;-8.60;99.90
47482;DHT22;33219;47.410;9.730;2022-12-13T06:23:33;-8.60;99.90
47482;DHT22;33219;47.410;9.730;2022-12-13T06:26:05;-8.60;99.90
47482;DHT22;33219;47.410;9.730;2022-12-13T06:28:37;-8.60;99.90
47482;DHT22;33219;47.410;9.730;2022-12-13T06:31:04;-8.60;99.90
47482;DHT22;33219;47.410;9.730;2022-12-13T06:33:33;-8.60;99.90
47482;DHT22;33219;47.410;9.730;2022-12-13T06:36:03;-8.50;99.90
47482;DHT22;33219;47.410;9.730;2022-12-13T06:38:31;-8.50;99.90
47482;DHT22;33219;47.410;9.730;2022-12-13T06:41:13;-8.50;99.90
47482;DHT22;33219;47.410;9.730;2022-12-13T06:43:52;-8.40;99.90
47482;DHT22;33219;47.410;9.730;2022-12-13T06:46:49;-8.40;99.90
47482;DHT22;33219;47.410;9.730;2022-12-13T06:49:38;-8.30;99.90
47482;DHT22;33219;47.410;9.730;2022-12-13T06:52:12;-8.20;99.90
47482;DHT22;33219;47.410;9.730;2022-12-13T06:54:43;-8.10;99.90
47482;DHT22;33219;47.410;9.730;2022-12-13T07:00:13;-7.90;99.90
47482;DHT22;33219;47.410;9.730;2022-12-13T07:02:58;-7.70;99.90
47482;DHT22;33219;47.410;9.730;2022-12-13T07:08:05;-7.60;99.90
47482;DHT22;33219;47.410;9.730;2022-12-13T07:13:25;-7.50;99.90
47482;DHT22;33219;47.410;9.730;2022-12-13T07:16:17;-7.40;99.90
47482;DHT22;33219;47.410;9.730;2022-12-13T07:18:42;-7.30;99.90
47482;DHT22;33219;47.410;9.730;2022-12-13T07:21:12;-7.20;99.90
47482;DHT22;33219;47.410;9.730;2022-12-13T07:24:18;-7.20;99.90
47482;DHT22;33219;47.410;9.730;2022-12-13T07:30:07;-7.10;99.90
47482;DHT22;33219;47.410;9.730;2022-12-13T07:32:03;-7.10;99.90
47482;DHT22;33219;47.410;9.730;2022-12-13T07:34:35;-7.00;99.90
47482;DHT22;33219;47.410;9.730;2022-12-13T07:37:04;-7.00;99.90
47482;DHT22;33219;47.410;9.730;2022-12-13T07:39:43;-7.00;99.90
47482;DHT22;33219;47.410;9.730;2022-12-13T07:42:17;-7.00;99.90
47482;DHT22;33219;47.410;9.730;2022-12-13T07:44:47;-7.10;99.90
47482;DHT22;33219;47.410;9.730;2022-12-13T07:47:18;-7.10;99.90
47482;DHT22;33219;47.410;9.730;2022-12-13T07:49:52;-7.00;99.90
47482;DHT22;33219;47.410;9.730;2022-12-13T07:52:25;-6.90;99.90
47482;DHT22;33219;47.410;9.730;2022-12-13T07:54:55;-6.80;99.90
47482;DHT22;33219;47.410;9.730;2022-12-13T07:57:28;-6.80;99.90
47482;DHT22;33219;47.410;9.730;2022-12-13T08:00:02;-6.70;99.90
47482;DHT22;33219;47.410;9.730;2022-12-13T08:02:37;-6.70;99.90
47482;DHT22;33219;47.410;9.730;2022-12-13T08:05:08;-6.70;99.90
47482;DHT22;33219;47.410;9.730;2022-12-13T08:07:42;-6.70;99.90
47482;DHT22;33219;47.410;9.730;2022-12-13T08:10:14;-6.60;99.90
47482;DHT22;33219;47.410;9.730;2022-12-13T08:12:48;-6.50;99.90
47482;DHT22;33219;47.410;9.730;2022-12-13T08:15:23;-6.40;99.90
47482;DHT22;33219;47.410;9.730;2022-12-13T08:17:57;-6.30;99.90
47482;DHT22;33219;47.410;9.730;2022-12-13T08:20:32;-6.00;99.90
47482;DHT22;33219;47.410;9.730;2022-12-13T08:23:06;-5.80;99.90
47482;DHT22;33219;47.410;9.730;2022-12-13T08:25:40;-5.70;99.90
47482;DHT22;33219;47.410;9.730;2022-12-13T08:28:12;-5.70;99.90
47482;DHT22;33219;47.410;9.730;2022-12-13T08:30:45;-5.60;99.90
47482;DHT22;33219;47.410;9.730;2022-12-13T08:33:16;-5.60;99.90
47482;DHT22;33219;47.410;9.730;2022-12-13T08:39:18;-5.30;99.90
47482;DHT22;33219;47.410;9.730;2022-12-13T08:44:47;-5.10;99.90
47482;DHT22;33219;47.410;9.730;2022-12-13T08:50:31;-5.00;99.90
47482;DHT22;33219;47.410;9.730;2022-12-13T09:03:32;-4.90;99.90
47482;DHT22;33219;47.410;9.730;2022-12-13T09:06:20;-4.90;99.90
47482;DHT22;33219;47.410;9.730;2022-12-13T09:08:55;-4.90;99.90
47482;DHT22;33219;47.410;9.730;2022-12-13T09:11:28;-4.90;99.90
47482;DHT22;33219;47.410;9.730;2022-12-13T09:14:01;-4.90;99.90
47482;DHT22;33219;47.410;9.730;2022-12-13T09:16:35;-4.90;99.90
47482;DHT22;33219;47.410;9.730;2022-12-13T09:19:09;-4.90;99.90
47482;DHT22;33219;47.410;9.730;2022-12-13T09:21:42;-4.90;99.90
47482;DHT22;33219;47.410;9.730;2022-12-13T09:24:14;-4.80;99.90
47482;DHT22;33219;47.410;9.730;2022-12-13T09:26:43;-4.60;99.90
47482;DHT22;33219;47.410;9.730;2022-12-13T09:29:13;-4.50;99.90
47482;DHT22;33219;47.410;9.730;2022-12-13T09:31:45;-4.30;99.90
47482;DHT22;33219;47.410;9.730;2022-12-13T09:34:16;-4.20;99.90
47482;DHT22;33219;47.410;9.730;2022-12-13T09:36:46;-4.10;99.90
47482;DHT22;33219;47.410;9.730;2022-12-13T09:39:21;-3.90;99.90
47482;DHT22;33219;47.410;9.730;2022-12-13T09:44:46;-3.80;99.90
47482;DHT22;33219;47.410;9.730;2022-12-13T09:47:15;-3.70;99.90
47482;DHT22;33219;47.410;9.730;2022-12-13T09:49:50;-3.60;99.90
47482;DHT22;33219;47.410;9.730;2022-12-13T09:52:24;-3.60;99.90
47482;DHT22;33219;47.410;9.730;2022-12-13T09:54:56;-3.50;99.90
47482;DHT22;33219;47.410;9.730;2022-12-13T09:57:31;-3.50;99.90
47482;DHT22;33219;47.410;9.730;2022-12-13T10:00:06;-3.40;99.90
47482;DHT22;33219;47.410;9.730;2022-12-13T10:02:44;-3.30;99.90
47482;DHT22;33219;47.410;9.730;2022-12-13T10:05:30;-3.10;99.90
47482;DHT22;33219;47.410;9.730;2022-12-13T10:08:07;-2.80;99.90
47482;DHT22;33219;47.410;9.730;2022-12-13T10:10:41;-2.70;99.90
47482;DHT22;33219;47.410;9.730;2022-12-13T10:13:38;-2.80;99.90
47482;DHT22;33219;47.410;9.730;2022-12-13T10:16:22;-2.70;99.90
47482;DHT22;33219;47.410;9.730;2022-12-13T10:18:42;-2.70;99.90
47482;DHT22;33219;47.410;9.730;2022-12-13T10:21:32;-2.70;99.90
47482;DHT22;33219;47.410;9.730;2022-12-13T10:26:46;-2.60;99.90
47482;DHT22;33219;47.410;9.730;2022-12-13T10:29:20;-2.80;99.90
47482;DHT22;33219;47.410;9.730;2022-12-13T10:31:54;-2.60;99.90
47482;DHT22;33219;47.410;9.730;2022-12-13T10:34:28;-2.70;99.90
47482;DHT22;33219;47.410;9.730;2022-12-13T10:37:19;-2.70;99.90
47482;DHT22;33219;47.410;9.730;2022-12-13T10:39:43;-2.60;99.90
47482;DHT22;33219;47.410;9.730;2022-12-13T10:42:21;-2.70;99.90
47482;DHT22;33219;47.410;9.730;2022-12-13T10:45:15;-2.60;99.90
47482;DHT22;33219;47.410;9.730;2022-12-13T10:48:21;-2.70;99.90
47482;DHT22;33219;47.410;9.730;2022-12-13T10:50:28;-2.40;99.90
47482;DHT22;33219;47.410;9.730;2022-12-13T10:55:53;-2.40;99.90
47482;DHT22;33219;47.410;9.730;2022-12-13T10:58:20;-2.40;99.90
47482;DHT22;33219;47.410;9.730;2022-12-13T11:00:49;-2.60;99.90
47482;DHT22;33219;47.410;9.730;2022-12-13T11:03:31;-2.80;99.90
47482;DHT22;33219;47.410;9.730;2022-12-13T11:06:14;-2.80;99.90
47482;DHT22;33219;47.410;9.730;2022-12-13T11:08:44;-2.70;99.90
47482;DHT22;33219;47.410;9.730;2022-12-13T11:11:15;-2.80;99.90
47482;DHT22;33219;47.410;9.730;2022-12-13T11:13:51;-2.70;99.90
47482;DHT22;33219;47.410;9.730;2022-12-13T11:16:38;-2.60;99.90
47482;DHT22;33219;47.410;9.730;2022-12-13T11:19:13;-2.50;99.90
47482;DHT22;33219;47.410;9.730;2022-12-13T11:21:37;-2.30;99.90
47482;DHT22;33219;47.410;9.730;2022-12-13T11:24:07;-2.30;99.90
47482;DHT22;33219;47.410;9.730;2022-12-13T11:26:37;-2.20;99.90
47482;DHT22;33219;47.410;9.730;2022-12-13T11:42:40;-2.10;99.90
47482;DHT22;33219;47.410;9.730;2022-12-13T11:45:38;-2.10;99.90
47482;DHT22;33219;47.410;9.730;2022-12-13T11:50:51;-2.50;99.90
47482;DHT22;33219;47.410;9.730;2022-12-13T11:53:42;-2.40;99.90
47482;DHT22;33219;47.410;9.730;2022-12-13T11:56:14;-2.40;99.90
47482;DHT22;33219;47.410;9.730;2022-12-13T11:59:01;-2.20;99.90
47482;DHT22;33219;47.410;9.730;2022-12-13T12:01:31;-2.00;99.90
47482;DHT22;33219;47.410;9.730;2022-12-13T12:04:05;-2.00;99.90
47482;DHT22;33219;47.410;9.730;2022-12-13T12:06:32;-1.90;99.90
47482;DHT22;33219;47.410;9.730;2022-12-13T12:09:06;-2.00;99.90
47482;DHT22;33219;47.410;9.730;2022-12-13T12:14:38;-1.80;99.90
47482;DHT22;33219;47.410;9.730;2022-12-13T12:17:22;-1.60;99.90
47482;DHT22;33219;47.410;9.730;2022-12-13T12:19:52;-1.50;99.90
47482;DHT22;33219;47.410;9.730;2022-12-13T12:25:37;-1.60;99.90
47482;DHT22;33219;47.410;9.730;2022-12-13T12:31:35;-1.70;99.90
47482;DHT22;33219;47.410;9.730;2022-12-13T12:34:41;-1.50;99.90
47482;DHT22;33219;47.410;9.730;2022-12-13T12:43:26;-1.70;99.90
47482;DHT22;33219;47.410;9.730;2022-12-13T12:51:46;-1.70;99.90
47482;DHT22;33219;47.410;9.730;2022-12-13T12:56:58;-1.80;99.90
47482;DHT22;33219;47.410;9.730;2022-12-13T12:59:37;-1.80;99.90
47482;DHT22;33219;47.410;9.730;2022-12-13T13:02:20;-2.00;99.90
47482;DHT22;33219;47.410;9.730;2022-12-13T13:04:52;-1.80;99.90
47482;DHT22;33219;47.410;9.730;2022-12-13T13:07:28;-1.80;99.90
47482;DHT22;33219;47.410;9.730;2022-12-13T13:09:58;-1.80;99.90
47482;DHT22;33219;47.410;9.730;2022-12-13T13:12:28;-1.80;99.90
47482;DHT22;33219;47.410;9.730;2022-12-13T13:15:41;-1.80;99.90
47482;DHT22;33219;47.410;9.730;2022-12-13T13:20:18;-1.70;99.90
47482;DHT22;33219;47.410;9.730;2022-12-13T13:22:49;-1.80;99.90
47482;DHT22;33219;47.410;9.730;2022-12-13T13:25:29;-1.90;99.90
47482;DHT22;33219;47.410;9.730;2022-12-13T13:28:16;-2.00;99.90
47482;DHT22;33219;47.410;9.730;2022-12-13T13:31:02;-2.00;99.90
47482;DHT22;33219;47.410;9.730;2022-12-13T13:33:43;-2.10;99.90
47482;DHT22;33219;47.410;9.730;2022-12-13T13:38:58;-2.20;99.90
47482;DHT22;33219;47.410;9.730;2022-12-13T13:55:21;-2.20;99.90
47482;DHT22;33219;47.410;9.730;2022-12-13T14:17:52;-2.30;99.90
47482;DHT22;33219;47.410;9.730;2022-12-13T14:25:58;-2.40;99.90
47482;DHT22;33219;47.410;9.730;2022-12-13T14:28:31;-2.50;99.90
47482;DHT22;33219;47.410;9.730;2022-12-13T14:30:56;-2.50;99.90
47482;DHT22;33219;47.410;9.730;2022-12-13T14:33:26;-2.50;99.90
47482;DHT22;33219;47.410;9.730;2022-12-13T14:35:56;-2.60;99.90
47482;DHT22;33219;47.410;9.730;2022-12-13T14:38:26;-2.60;99.90
47482;DHT22;33219;47.410;9.730;2022-12-13T14:40:59;-2.50;99.90
47482;DHT22;33219;47.410;9.730;2022-12-13T14:43:29;-2.50;99.90
47482;DHT22;33219;47.410;9.730;2022-12-13T14:45:59;-2.50;99.90
47482;DHT22;33219;47.410;9.730;2022-12-13T14:48:30;-2.60;99.90
47482;DHT22;33219;47.410;9.730;2022-12-13T14:50:58;-2.60;99.90
47482;DHT22;33219;47.410;9.730;2022-12-13T14:53:34;-2.50;99.90
47482;DHT22;33219;47.410;9.730;2022-12-13T14:56:04;-2.50;99.90
47482;DHT22;33219;47.410;9.730;2022-12-13T14:58:32;-2.60;99.90
47482;DHT22;33219;47.410;9.730;2022-12-13T15:03:45;-2.60;99.90
47482;DHT22;33219;47.410;9.730;2022-12-13T15:06:13;-2.70;99.90
47482;DHT22;33219;47.410;9.730;2022-12-13T15:08:42;-2.70;99.90
47482;DHT22;33219;47.410;9.730;2022-12-13T15:11:10;-2.70;99.90
47482;DHT22;33219;47.410;9.730;2022-12-13T15:13:40;-2.70;99.90
47482;DHT22;33219;47.410;9.730;2022-12-13T15:16:25;-2.70;99.90
47482;DHT22;33219;47.410;9.730;2022-12-13T15:19:15;-2.70;99.90
47482;DHT22;33219;47.410;9.730;2022-12-13T15:22:00;-2.70;99.90
47482;DHT22;33219;47.410;9.730;2022-12-13T15:24:32;-2.80;99.90
47482;DHT22;33219;47.410;9.730;2022-12-13T15:27:00;-2.80;99.90
47482;DHT22;33219;47.410;9.730;2022-12-13T15:29:29;-2.80;99.90
47482;DHT22;33219;47.410;9.730;2022-12-13T15:31:57;-2.80;99.90
47482;DHT22;33219;47.410;9.730;2022-12-13T15:34:32;-2.80;99.90
47482;DHT22;33219;47.410;9.730;2022-12-13T15:37:23;-2.70;99.90
47482;DHT22;33219;47.410;9.730;2022-12-13T15:39:53;-2.80;99.90
47482;DHT22;33219;47.410;9.730;2022-12-13T15:42:34;-2.80;99.90
47482;DHT22;33219;47.410;9.730;2022-12-13T15:45:04;-2.90;99.90
47482;DHT22;33219;47.410;9.730;2022-12-13T15:47:32;-2.90;99.90
47482;DHT22;33219;47.410;9.730;2022-12-13T15:50:05;-2.80;99.90
47482;DHT22;33219;47.410;9.730;2022-12-13T15:52:39;-2.90;99.90
47482;DHT22;33219;47.410;9.730;2022-12-13T15:57:56;-2.90;99.90
47482;DHT22;33219;47.410;9.730;2022-12-13T16:00:29;-2.90;99.90
47482;DHT22;33219;47.410;9.730;2022-12-13T16:03:11;-2.90;99.90
47482;DHT22;33219;47.410;9.730;2022-12-13T16:05:42;-2.90;99.90
47482;DHT22;33219;47.410;9.730;2022-12-13T16:10:49;-2.90;99.90
47482;DHT22;33219;47.410;9.730;2022-12-13T16:13:32;-2.90;99.90
47482;DHT22;33219;47.410;9.730;2022-12-13T16:18:54;-2.90;99.90
47482;DHT22;33219;47.410;9.730;2022-12-13T16:21:23;-2.80;99.90
47482;DHT22;33219;47.410;9.730;2022-12-13T16:23:51;-2.80;99.90
47482;DHT22;33219;47.410;9.730;2022-12-13T16:26:27;-2.70;99.90
47482;DHT22;33219;47.410;9.730;2022-12-13T16:28:55;-2.70;99.90
47482;DHT22;33219;47.410;9.730;2022-12-13T16:31:27;-2.80;99.90
47482;DHT22;33219;47.410;9.730;2022-12-13T16:33:57;-2.80;99.90
47482;DHT22;33219;47.410;9.730;2022-12-13T16:36:24;-2.80;99.90
47482;DHT22;33219;47.410;9.730;2022-12-13T16:38:52;-2.80;99.90
47482;DHT22;33219;47.410;9.730;2022-12-13T16:41:20;-2.90;99.90
47482;DHT22;33219;47.410;9.730;2022-12-13T16:44:05;-2.90;99.90
47482;DHT22;33219;47.410;9.730;2022-12-13T16:46:27;-2.90;99.90
47482;DHT22;33219;47.410;9.730;2022-12-13T16:48:55;-2.90;99.90
47482;DHT22;33219;47.410;9.730;2022-12-13T16:51:23;-2.90;99.90
47482;DHT22;33219;47.410;9.730;2022-12-13T16:53:50;-2.90;99.90
47482;DHT22;33219;47.410;9.730;2022-12-13T16:56:22;-2.90;99.90
47482;DHT22;33219;47.410;9.730;2022-12-13T16:58:50;-2.90;99.90
47482;DHT22;33219;47.410;9.730;2022-12-13T17:01:19;-3.00;99.90
47482;DHT22;33219;47.410;9.730;2022-12-13T17:03:47;-3.10;99.90
47482;DHT22;33219;47.410;9.730;2022-12-13T17:06:18;-3.10;99.90
47482;DHT22;33219;47.410;9.730;2022-12-13T17:08:45;-3.10;99.90
47482;DHT22;33219;47.410;9.730;2022-12-13T17:11:13;-3.10;99.90
47482;DHT22;33219;47.410;9.730;2022-12-13T17:13:41;-3.10;99.90
47482;DHT22;33219;47.410;9.730;2022-12-13T17:16:10;-3.10;99.90
47482;DHT22;33219;47.410;9.730;2022-12-13T17:18:39;-3.20;99.90
47482;DHT22;33219;47.410;9.730;2022-12-13T17:21:08;-3.20;99.90
47482;DHT22;33219;47.410;9.730;2022-12-13T17:23:36;-3.20;99.90
47482;DHT22;33219;47.410;9.730;2022-12-13T17:26:09;-3.20;99.90
47482;DHT22;33219;47.410;9.730;2022-12-13T17:28:39;-3.10;99.90
47482;DHT22;33219;47.410;9.730;2022-12-13T17:31:10;-3.20;99.90
47482;DHT22;33219;47.410;9.730;2022-12-13T17:33:39;-3.20;99.90
47482;DHT22;33219;47.410;9.730;2022-12-13T17:36:08;-3.10;99.90
47482;DHT22;33219;47.410;9.730;2022-12-13T17:38:36;-3.10;99.90
47482;DHT22;33219;47.410;9.730;2022-12-13T17:41:05;-3.10;99.90
47482;DHT22;33219;47.410;9.730;2022-12-13T17:43:33;-3.10;99.90
47482;DHT22;33219;47.410;9.730;2022-12-13T17:46:02;-3.10;99.90
47482;DHT22;33219;47.410;9.730;2022-12-13T17:48:32;-3.10;99.90
47482;DHT22;33219;47.410;9.730;2022-12-13T17:51:00;-3.10;99.90
47482;DHT22;33219;47.410;9.730;2022-12-13T17:53:28;-3.10;99.90
47482;DHT22;33219;47.410;9.730;2022-12-13T17:56:03;-3.10;99.90
47482;DHT22;33219;47.410;9.730;2022-12-13T17:58:26;-3.10;99.90
47482;DHT22;33219;47.410;9.730;2022-12-13T18:00:54;-3.10;99.90
47482;DHT22;33219;47.410;9.730;2022-12-13T18:03:24;-3.10;99.90
47482;DHT22;33219;47.410;9.730;2022-12-13T18:05:57;-3.10;99.90
47482;DHT22;33219;47.410;9.730;2022-12-13T18:08:26;-3.10;99.90
47482;DHT22;33219;47.410;9.730;2022-12-13T18:10:58;-3.10;99.90
47482;DHT22;33219;47.410;9.730;2022-12-13T18:13:27;-3.10;99.90
47482;DHT22;33219;47.410;9.730;2022-12-13T18:15:57;-3.00;99.90
47482;DHT22;33219;47.410;9.730;2022-12-13T18:18:27;-3.00;99.90
47482;DHT22;33219;47.410;9.730;2022-12-13T18:20:55;-2.90;99.90
47482;DHT22;33219;47.410;9.730;2022-12-13T18:23:23;-2.90;99.90
47482;DHT22;33219;47.410;9.730;2022-12-13T18:25:57;-2.90;99.90
47482;DHT22;33219;47.410;9.730;2022-12-13T18:28:23;-3.00;99.90
47482;DHT22;33219;47.410;9.730;2022-12-13T18:30:51;-3.00;99.90
47482;DHT22;33219;47.410;9.730;2022-12-13T18:33:19;-3.00;99.90
47482;DHT22;33219;47.410;9.730;2022-12-13T18:35:46;-2.90;99.90